Seymour Johnson Air Force Base
KGSB : now visible

Airfield :











YOU CAN JOIN US ON...

 
LOGIN :

Register | Disclaimer

   EN    FR    IT 

 









Legend :    VFR   Marginal VFR   IFR   Intensive IFR   Very Intensive IFR
Visi :
Ceiling :
>= 8 km
>= 3000ft
5 to 8 km
1000 to 3000 ft
1500m to 5 km
500 to 1000 ft
800 to 1500m
200 to 500 ft
< 800m
< 200 ft
Symbols :   Thunderstorms  Fog  Heavy snow  Heavy precipitations  Wind > 20 kt






- Airport Elevation : 109 ft


KGSB - Seymour Johnson Air Force Base

CURRENT METAR :
  • 191456Z 01012G19KT 10SM BKN010 BKN015 OVC022 10/10 A3026 RMK AO2A RAB25E35 CIG 013V020 CIG 008 RWY26 SLP250 P0000 60002 T01030095 52044 $

EXPIRED METARs :
  • 191450Z 03011G19KT 10SM BKN010 OVC015 10/09 A3026 RMK AO2A RAB25E35 CIG 010 RWY26 SLP250 $
  • 191435Z AUTO 02013KT 8SM FEW012 OVC020 11/09 A3025 RMK AO2 RAB25E35 CIG 015V020 CIG 012 RWY26 SLP247 $
  • 191425Z AUTO 02016G25KT 10SM -RA OVC017 11/09 A3024 RMK AO2 RAB25 CIG 012 RWY26 SLP243 $
  • 191356Z AUTO 36012G17KT 10SM OVC013 11/10 A3022 RMK AO2 RAE1258RAB02E40 CIG 012 RWY26 PRESRR SLP237 P0000 T01120104 $
  • 191311Z 01009G20KT 10SM -RA FEW009 BKN012 OVC020 12/12 A3019 RMK AO2A RAE1258RAB02 SLP226 $
  • 191256Z 02013G22KT 10SM -RA BKN009 OVC016 12/12 A3018 RMK AO2A RAE26RAB42 CIG 009V017 OVC V BKN CIG 016 RWY26 PRESRR SLP223 P0002 T01200120 $

TAF AMD TAF KGSB
Valid from the 19 at 15:00 until the 20 at 19:00 UTC


191510Z 1915/2019 03012G22KT 9999 SCT007 BKN010 BKN030 OVC100 QNH3020INS
BECMG 1917/1918 03012G22KT 9999 BKN015 OVC100 QNH3025INS
BECMG 1921/1922 03009KT 9999 BKN060 OVC150 QNH3031INS
BECMG 2014/2015 04012G20KT 8000 -RA BKN025 QNH3035INS TX10/1915Z TN03/2012Z



MET'MAP, your aeronautical weather chart ! - Copyright ORBIFLY December 2007 - Disclaimer

ORBIFLY MET'MAP TEAM :

Programming & Development : Alexandra Zaïnal
Concept & original design : Baudouin d'Aumeries
Assistance for programming : Marc-Olivier Méhu
Technical & hardware support : Manuel Goepfert

Contact : metmap@orbifly.com




SOURCES & CREDITS :

   NOAA       Earth
Advisory